Time;durP1;ratioP1;P1;durP2;ratioP2;P2;SDS_P1;SDS_P2;PMS_P1;PMS_P2;Temp;Humidity;BMP_temperature;BMP_pressure;BME280_temperature;BME280_humidity;BME280_pressure;Samples;Min_cycle;Max_cycle;Signal;HPM_P1;HPM_P2
2021/01/24 00:00:40;;;;;;;;;;;;;;;;;;5053717;28;20384;-83
2021/01/24 00:03:06;;;;;;;;;;;;;;;;;;5036899;28;20387;-82
2021/01/24 00:05:33;;;;;;;;;;;;;;;;;;5041016;28;20471;-82
2021/01/24 00:08:00;;;;;;;;;;;;;;;;;;5038275;28;20887;-83
2021/01/24 00:10:27;;;;;;;;;;;;;;;;;;5039770;28;20813;-82
2021/01/24 00:12:53;;;;;;;;;;;;;;;;;;5050131;28;20416;-82
2021/01/24 00:15:19;;;;;;;;;;;;;;;;;;5037055;28;20801;-83
2021/01/24 00:17:46;;;;;;;;;;;;;;;;;;5039805;28;20384;-84
2021/01/24 00:20:12;;;;;;;;;;;;;;;;;;5043502;28;20385;-84
2021/01/24 00:22:39;;;;;;;;;;;;;;;;;;5047649;28;20969;-84
2021/01/24 00:25:05;;;;;;;;;;;;;;;;;;5053997;28;20406;-83
2021/01/24 00:27:31;;;;;;;;;;;;;;;;;;5049766;28;20402;-83
2021/01/24 00:29:58;;;;;;;;;;;;;;;;;;5047168;28;20381;-82
2021/01/24 00:32:24;;;;;;;;;;;;;;;;;;5054313;28;20415;-81
2021/01/24 00:34:50;;;;;;;;;;;;;;;;;;5064198;28;20377;-81
2021/01/24 00:37:17;;;;;;;;;;;;;;;;;;5064033;28;20385;-82
2021/01/24 00:39:43;;;;;;;;;;;;;;;;;;5044791;28;20387;-82
2021/01/24 00:42:09;;;;;;;;;;;;;;;;;;5052339;28;20409;-82
2021/01/24 00:44:36;;;;;;;;;;;;;;;;;;5051700;28;20384;-82
2021/01/24 00:47:02;;;;;;;;;;;;;;;;;;5053944;28;20402;-82
2021/01/24 00:49:28;;;;;;;;;;;;;;;;;;5047190;28;20852;-82
2021/01/24 00:51:55;;;;;;;;;;;;;;;;;;5056441;28;20412;-82
2021/01/24 00:54:21;;;;;;;;;;;;;;;;;;5042584;28;20383;-82
2021/01/24 00:56:48;;;;;;;;;;;;;;;;;;5021626;28;20846;-82
2021/01/24 00:59:14;;;;;;;;;;;;;;;;;;5037008;28;20391;-82
2021/01/24 01:01:40;;;;;;;;;;;;;;;;;;5048331;28;20410;-81
2021/01/24 01:04:07;;;;;;;;;;;;;;;;;;5057299;28;20848;-81
2021/01/24 01:06:33;;;;;;;;;;;;;;;;;;5049460;28;20391;-81
2021/01/24 01:08:59;;;;;;;;;;;;;;;;;;5036034;28;20398;-82
2021/01/24 01:11:26;;;;;;;;;;;;;;;;;;5037828;28;20407;-81
2021/01/24 01:13:52;;;;;;;;;;;;;;;;;;5061069;28;20394;-81
2021/01/24 01:16:18;;;;;;;;;;;;;;;;;;5044302;28;20390;-81
2021/01/24 01:18:45;;;;;;;;;;;;;;;;;;5037363;28;20387;-81
2021/01/24 01:21:11;;;;;;;;;;;;;;;;;;5051967;28;20427;-81
2021/01/24 01:23:38;;;;;;;;;;;;;;;;;;5042834;28;20402;-82
2021/01/24 01:26:04;;;;;;;;;;;;;;;;;;5036173;28;20387;-82
2021/01/24 01:28:30;;;;;;;;;;;;;;;;;;5048021;28;20400;-81
2021/01/24 01:30:57;;;;;;;;;;;;;;;;;;5049873;28;20418;-82
2021/01/24 01:33:23;;;;;;;;;;;;;;;;;;5039878;28;20402;-83
2021/01/24 01:35:49;;;;;;;;;;;;;;;;;;5036499;28;20394;-83
2021/01/24 01:38:16;;;;;;;;;;;;;;;;;;5035967;28;20398;-82
2021/01/24 01:40:42;;;;;;;;;;;;;;;;;;5038737;28;20395;-82
2021/01/24 01:43:08;;;;;;;;;;;;;;;;;;5049165;28;20751;-83
2021/01/24 01:45:35;;;;;;;;;;;;;;;;;;5049706;28;20392;-83
2021/01/24 01:48:01;;;;;;;;;;;;;;;;;;5055565;28;20412;-83
2021/01/24 01:50:27;;;;;;;;;;;;;;;;;;5055898;28;20391;-83
2021/01/24 01:52:54;;;;;;;;;;;;;;;;;;5041140;28;20895;-82
2021/01/24 01:55:20;;;;;;;;;;;;;;;;;;5036230;28;20410;-82
2021/01/24 01:57:46;;;;;;;;;;;;;;;;;;5055331;28;20384;-82
2021/01/24 02:00:13;;;;;;;;;;;;;;;;;;5038520;28;20387;-82
2021/01/24 02:02:39;;;;;;;;;;;;;;;;;;5051343;28;20410;-82
2021/01/24 02:05:06;;;;;;;;;;;;;;;;;;5047205;28;20395;-82
2021/01/24 02:07:32;;;;;;;;;;;;;;;;;;5035524;28;20403;-82
2021/01/24 02:09:58;;;;;;;;;;;;;;;;;;5035632;28;20391;-82
2021/01/24 02:12:25;;;;;;;;;;;;;;;;;;5040178;28;20434;-82
2021/01/24 02:14:51;;;;;;;;;;;;;;;;;;5037460;28;20391;-81
2021/01/24 02:17:18;;;;;;;;;;;;;;;;;;5037015;28;20394;-82
2021/01/24 02:19:44;;;;;;;;;;;;;;;;;;5041338;28;20436;-82
2021/01/24 02:22:11;;;;;;;;;;;;;;;;;;5038188;28;20415;-81
2021/01/24 02:24:37;;;;;;;;;;;;;;;;;;5037198;28;20802;-81
2021/01/24 02:27:03;;;;;;;;;;;;;;;;;;5054298;28;20415;-81
2021/01/24 02:29:30;;;;;;;;;;;;;;;;;;5048986;28;20387;-81
2021/01/24 02:31:56;;;;;;;;;;;;;;;;;;5084878;22;20448;-82
2021/01/24 02:34:22;;;;;;;;;;;;;;;;;;5033860;28;20445;-82
2021/01/24 02:36:49;;;;;;;;;;;;;;;;;;5019253;28;20449;-82
2021/01/24 02:39:15;;;;;;;;;;;;;;;;;;5020238;28;20401;-82
2021/01/24 02:41:42;;;;;;;;;;;;;;;;;;5029255;28;20797;-82
2021/01/24 02:44:09;;;;;;;;;;;;;;;;;;5033911;28;20389;-82
2021/01/24 02:46:36;;;;;;;;;;;;;;;;;;5019654;28;20801;-81
2021/01/24 02:49:02;;;;;;;;;;;;;;;;;;5019571;28;20390;-82
2021/01/24 02:51:28;;;;;;;;;;;;;;;;;;5018519;28;20418;-82
2021/01/24 02:53:55;;;;;;;;;;;;;;;;;;5020006;28;20876;-83
2021/01/24 02:56:22;;;;;;;;;;;;;;;;;;5021196;28;20398;-83
2021/01/24 02:58:48;;;;;;;;;;;;;;;;;;5021317;28;20382;-83
2021/01/24 03:01:15;;;;;;;;;;;;;;;;;;5039172;28;20407;-83
2021/01/24 03:03:41;;;;;;;;;;;;;;;;;;5035719;28;20805;-83
2021/01/24 03:06:07;;;;;;;;;;;;;;;;;;5018825;28;20390;-81
2021/01/24 03:08:34;;;;;;;;;;;;;;;;;;5023823;28;20406;-83
2021/01/24 03:11:00;;;;;;;;;;;;;;;;;;5019178;28;20417;-83
2021/01/24 03:13:26;;;;;;;;;;;;;;;;;;5021565;28;20394;-83
2021/01/24 03:15:53;;;;;;;;;;;;;;;;;;5039127;28;20392;-83
2021/01/24 03:18:19;;;;;;;;;;;;;;;;;;5039058;28;20793;-83
2021/01/24 03:20:46;;;;;;;;;;;;;;;;;;5038335;28;20450;-82
2021/01/24 03:23:12;;;;;;;;;;;;;;;;;;5038574;28;20890;-83
2021/01/24 03:25:38;;;;;;;;;;;;;;;;;;5031840;28;20398;-83
2021/01/24 03:28:07;;;;;;;;;;;;;;;;;;5017104;28;20402;-82
2021/01/24 03:30:33;;;;;;;;;;;;;;;;;;5019325;28;20394;-83
2021/01/24 03:32:59;;;;;;;;;;;;;;;;;;5021925;28;20425;-83
2021/01/24 03:35:26;;;;;;;;;;;;;;;;;;5022372;28;20390;-82
2021/01/24 03:37:52;;;;;;;;;;;;;;;;;;5025039;28;20396;-82
2021/01/24 03:40:18;;;;;;;;;;;;;;;;;;5022643;28;20410;-82
2021/01/24 03:42:45;;;;;;;;;;;;;;;;;;5022076;28;20409;-83
2021/01/24 03:45:11;;;;;;;;;;;;;;;;;;5023666;28;20383;-83
2021/01/24 03:47:38;;;;;;;;;;;;;;;;;;5024182;28;20406;-83
2021/01/24 03:50:04;;;;;;;;;;;;;;;;;;5023360;28;20866;-83
2021/01/24 03:52:30;;;;;;;;;;;;;;;;;;5025069;28;20413;-84
2021/01/24 03:54:57;;;;;;;;;;;;;;;;;;5029412;28;20843;-83
2021/01/24 03:57:23;;;;;;;;;;;;;;;;;;5030852;28;20409;-82
2021/01/24 03:59:51;;;;;;;;;;;;;;;;;;5029515;28;20393;-82
2021/01/24 04:02:18;;;;;;;;;;;;;;;;;;5037789;28;20439;-82
2021/01/24 04:04:44;;;;;;;;;;;;;;;;;;5041136;28;20422;-82
2021/01/24 04:07:10;;;;;;;;;;;;;;;;;;5029837;28;20410;-83
2021/01/24 04:09:37;;;;;;;;;;;;;;;;;;5028105;28;20394;-83
2021/01/24 04:12:03;;;;;;;;;;;;;;;;;;5026450;28;20406;-83
2021/01/24 04:14:29;;;;;;;;;;;;;;;;;;5036125;28;20380;-83
2021/01/24 04:16:56;;;;;;;;;;;;;;;;;;5035990;28;20851;-82
2021/01/24 04:19:22;;;;;;;;;;;;;;;;;;5028681;28;20393;-84
2021/01/24 04:21:48;;;;;;;;;;;;;;;;;;5033008;28;20399;-82
2021/01/24 04:24:15;;;;;;;;;;;;;;;;;;5048415;28;20398;-84
2021/01/24 04:26:41;;;;;;;;;;;;;;;;;;5039455;28;20383;-83
2021/01/24 04:29:08;;;;;;;;;;;;;;;;;;5042573;28;20391;-83
2021/01/24 04:31:34;;;;;;;;;;;;;;;;;;5045093;28;20422;-84
2021/01/24 04:34:00;;;;;;;;;;;;;;;;;;5028808;28;20399;-84
2021/01/24 04:36:27;;;;;;;;;;;;;;;;;;5043202;28;20378;-83
2021/01/24 04:38:53;;;;;;;;;;;;;;;;;;5049785;28;20383;-83
2021/01/24 04:41:19;;;;;;;;;;;;;;;;;;5039472;28;20406;-83
2021/01/24 04:43:46;;;;;;;;;;;;;;;;;;5032754;28;20405;-83
2021/01/24 04:46:12;;;;;;;;;;;;;;;;;;5034669;28;20387;-83
2021/01/24 04:48:39;;;;;;;;;;;;;;;;;;5037574;28;20415;-83
2021/01/24 04:51:05;;;;;;;;;;;;;;;;;;5031351;28;20409;-83
2021/01/24 04:53:31;;;;;;;;;;;;;;;;;;5027235;28;20390;-82
2021/01/24 04:55:58;;;;;;;;;;;;;;;;;;5027921;28;20390;-82
2021/01/24 04:58:24;;;;;;;;;;;;;;;;;;5039736;28;20387;-82
2021/01/24 05:00:50;;;;;;;;;;;;;;;;;;5030579;28;20389;-83
2021/01/24 05:03:17;;;;;;;;;;;;;;;;;;5041810;28;20412;-83
2021/01/24 05:05:43;;;;;;;;;;;;;;;;;;5042308;28;20399;-83
2021/01/24 05:08:11;;;;;;;;;;;;;;;;;;5036964;28;20430;-83
2021/01/24 05:10:37;;;;;;;;;;;;;;;;;;5027172;28;20758;-83
2021/01/24 05:13:04;;;;;;;;;;;;;;;;;;5042832;28;20411;-83
2021/01/24 05:15:30;;;;;;;;;;;;;;;;;;5041916;28;20471;-82
2021/01/24 05:17:56;;;;;;;;;;;;;;;;;;5040252;28;20376;-82
2021/01/24 05:20:23;;;;;;;;;;;;;;;;;;5042848;28;20851;-82
2021/01/24 05:22:49;;;;;;;;;;;;;;;;;;5026969;28;20410;-82
2021/01/24 05:25:16;;;;;;;;;;;;;;;;;;5046258;28;20828;-82
2021/01/24 05:27:42;;;;;;;;;;;;;;;;;;5038720;28;20404;-82
2021/01/24 05:30:08;;;;;;;;;;;;;;;;;;5039505;28;20422;-82
2021/01/24 05:32:35;;;;;;;;;;;;;;;;;;5035449;28;20917;-81
2021/01/24 05:35:01;;;;;;;;;;;;;;;;;;5037837;28;20387;-82
2021/01/24 05:37:27;;;;;;;;;;;;;;;;;;5036207;28;20394;-82
2021/01/24 05:39:54;;;;;;;;;;;;;;;;;;5050567;28;20380;-81
2021/01/24 05:42:20;;;;;;;;;;;;;;;;;;5035230;28;20444;-81
2021/01/24 05:44:47;;;;;;;;;;;;;;;;;;5028429;28;20386;-81
2021/01/24 05:47:13;;;;;;;;;;;;;;;;;;5025872;28;20406;-81
2021/01/24 05:49:39;;;;;;;;;;;;;;;;;;5022979;28;20394;-81
2021/01/24 05:52:06;;;;;;;;;;;;;;;;;;5031399;28;20411;-81
2021/01/24 05:54:32;;;;;;;;;;;;;;;;;;5041978;28;20383;-81
2021/01/24 05:56:58;;;;;;;;;;;;;;;;;;5046877;28;20806;-81
2021/01/24 05:59:25;;;;;;;;;;;;;;;;;;5039641;28;20387;-81
2021/01/24 06:01:51;;;;;;;;;;;;;;;;;;5035747;28;20402;-82
2021/01/24 06:04:17;;;;;;;;;;;;;;;;;;5035549;28;20416;-82
2021/01/24 06:06:44;;;;;;;;;;;;;;;;;;5036900;28;20394;-81
2021/01/24 06:09:10;;;;;;;;;;;;;;;;;;5042217;28;20410;-81
2021/01/24 06:11:37;;;;;;;;;;;;;;;;;;5034882;28;20406;-83
2021/01/24 06:14:03;;;;;;;;;;;;;;;;;;5034543;28;20393;-81
2021/01/24 06:16:29;;;;;;;;;;;;;;;;;;5040360;28;20386;-84
2021/01/24 06:18:56;;;;;;;;;;;;;;;;;;5054537;28;20387;-79
2021/01/24 06:21:22;;;;;;;;;;;;;;;;;;5048305;28;20431;-84
2021/01/24 06:23:48;;;;;;;;;;;;;;;;;;5035457;28;20387;-81
2021/01/24 06:26:15;;;;;;;;;;;;;;;;;;5029756;28;20394;-82
2021/01/24 06:28:41;;;;;;;;;;;;;;;;;;5030036;28;20433;-84
2021/01/24 06:31:08;;;;;;;;;;;;;;;;;;5034087;28;20389;-83
2021/01/24 06:33:34;;;;;;;;;;;;;;;;;;5040372;28;20390;-82
2021/01/24 06:36:00;;;;;;;;;;;;;;;;;;5039310;28;20386;-84
2021/01/24 06:38:27;;;;;;;;;;;;;;;;;;5033325;28;20382;-83
2021/01/24 06:40:53;;;;;;;;;;;;;;;;;;5043132;28;20415;-84
2021/01/24 06:43:20;;;;;;;;;;;;;;;;;;5030583;28;20386;-85
2021/01/24 06:45:46;;;;;;;;;;;;;;;;;;5030777;28;20835;-85
2021/01/24 06:48:12;;;;;;;;;;;;;;;;;;5028982;28;20407;-84
2021/01/24 06:50:39;;;;;;;;;;;;;;;;;;5029201;28;20394;-85
2021/01/24 06:53:05;;;;;;;;;;;;;;;;;;5042659;28;20413;-84
2021/01/24 06:55:32;;;;;;;;;;;;;;;;;;5031051;28;20432;-84
2021/01/24 06:57:59;;;;;;;;;;;;;;;;;;5035826;28;20401;-84
2021/01/24 07:00:25;;;;;;;;;;;;;;;;;;5031183;28;20806;-84
2021/01/24 07:02:51;;;;;;;;;;;;;;;;;;5029078;28;20413;-84
2021/01/24 07:05:18;;;;;;;;;;;;;;;;;;5032817;28;20398;-84
2021/01/24 07:07:44;;;;;;;;;;;;;;;;;;5032468;28;20409;-85
2021/01/24 07:10:10;;;;;;;;;;;;;;;;;;5040246;28;20653;-85
2021/01/24 07:12:37;;;;;;;;;;;;;;;;;;5038030;28;20424;-81
2021/01/24 07:15:03;;;;;;;;;;;;;;;;;;5045046;28;20391;-86
2021/01/24 07:17:30;;;;;;;;;;;;;;;;;;5048200;28;20470;-86
2021/01/24 07:19:56;;;;;;;;;;;;;;;;;;5052418;28;20418;-86
2021/01/24 07:22:22;;;;;;;;;;;;;;;;;;5035579;28;20402;-86
2021/01/24 07:24:49;;;;;;;;;;;;;;;;;;5042158;28;20408;-86
2021/01/24 07:27:15;;;;;;;;;;;;;;;;;;5041377;28;20403;-85
2021/01/24 07:29:41;;;;;;;;;;;;;;;;;;5048388;28;20396;-86
2021/01/24 07:32:08;;;;;;;;;;;;;;;;;;5035420;28;20445;-84
2021/01/24 07:34:34;;;;;;;;;;;;;;;;;;5044333;28;20412;-84
2021/01/24 07:37:01;;;;;;;;;;;;;;;;;;5047585;28;20384;-87
2021/01/24 07:39:29;;;;;;;;;;;;;;;;;;5030872;28;20395;-85
2021/01/24 07:41:55;;;;;;;;;;;;;;;;;;5032875;28;20525;-86
2021/01/24 07:44:21;;;;;;;;;;;;;;;;;;5041203;28;20387;-84
2021/01/24 07:46:48;;;;;;;;;;;;;;;;;;5039989;28;20388;-85
2021/01/24 07:49:14;;;;;;;;;;;;;;;;;;5030898;28;20414;-83
2021/01/24 07:51:41;;;;;;;;;;;;;;;;;;5038673;28;20402;-83
2021/01/24 07:54:07;;;;;;;;;;;;;;;;;;5041429;28;20390;-85
2021/01/24 07:56:33;;;;;;;;;;;;;;;;;;5033843;28;20831;-84
2021/01/24 07:59:00;;;;;;;;;;;;;;;;;;5031549;28;20389;-84
2021/01/24 08:01:26;;;;;;;;;;;;;;;;;;5034318;28;20436;-83
2021/01/24 08:03:53;;;;;;;;;;;;;;;;;;5030654;28;20418;-84
2021/01/24 08:06:19;;;;;;;;;;;;;;;;;;5048289;28;20395;-83
2021/01/24 08:08:45;;;;;;;;;;;;;;;;;;5040898;28;20409;-82
2021/01/24 08:11:12;;;;;;;;;;;;;;;;;;5036721;28;20397;-81
2021/01/24 08:13:38;;;;;;;;;;;;;;;;;;5039733;28;20394;-83
2021/01/24 08:16:04;;;;;;;;;;;;;;;;;;5033415;28;20387;-82
2021/01/24 08:18:31;;;;;;;;;;;;;;;;;;5033415;28;20379;-83
2021/01/24 08:20:57;;;;;;;;;;;;;;;;;;5037734;28;20386;-83
2021/01/24 08:23:24;;;;;;;;;;;;;;;;;;5031615;28;20399;-82
2021/01/24 08:25:50;;;;;;;;;;;;;;;;;;5033159;28;20391;-81
2021/01/24 08:28:16;;;;;;;;;;;;;;;;;;5056160;28;20403;-79
2021/01/24 08:30:43;;;;;;;;;;;;;;;;;;5036640;28;20381;-81
2021/01/24 08:33:09;;;;;;;;;;;;;;;;;;5042496;28;20453;-81
2021/01/24 08:35:36;;;;;;;;;;;;;;;;;;5035561;28;22622;-84
2021/01/24 08:38:02;;;;;;;;;;;;;;;;;;5052554;28;20414;-83
2021/01/24 08:40:28;;;;;;;;;;;;;;;;;;5044275;28;20390;-83
2021/01/24 08:42:58;;;;;;;;;;;;;;;;;;5040636;28;20407;-85
2021/01/24 08:45:25;;;;;;;;;;;;;;;;;;5041447;28;20394;-84
2021/01/24 08:47:52;;;;;;;;;;;;;;;;;;5040456;28;20437;-87
2021/01/24 08:50:18;;;;;;;;;;;;;;;;;;5030382;28;20399;-87
2021/01/24 08:52:44;;;;;;;;;;;;;;;;;;5028912;28;20412;-88
2021/01/24 08:55:11;;;;;;;;;;;;;;;;;;5021168;28;20398;-87
2021/01/24 08:57:37;;;;;;;;;;;;;;;;;;5030327;28;20405;-86
2021/01/24 09:00:04;;;;;;;;;;;;;;;;;;5030184;28;20485;-86
2021/01/24 09:02:30;;;;;;;;;;;;;;;;;;5023381;28;20436;-87
2021/01/24 09:04:56;;;;;;;;;;;;;;;;;;5025468;28;20437;-86
2021/01/24 09:07:23;;;;;;;;;;;;;;;;;;5025713;28;20395;-87
2021/01/24 09:09:50;;;;;;;;;;;;;;;;;;5022637;28;20394;-86
2021/01/24 09:12:19;;;;;;;;;;;;;;;;;;5030895;28;20404;-86
2021/01/24 09:14:46;;;;;;;;;;;;;;;;;;5025509;28;20409;-88
2021/01/24 09:17:12;;;;;;;;;;;;;;;;;;5026120;28;20397;-86
2021/01/24 09:19:38;;;;;;;;;;;;;;;;;;5023497;28;20406;-86
2021/01/24 09:22:05;;;;;;;;;;;;;;;;;;5021677;28;20914;-85
2021/01/24 09:24:31;;;;;;;;;;;;;;;;;;5024099;28;20398;-84
2021/01/24 09:26:58;;;;;;;;;;;;;;;;;;5037189;28;20394;-84
2021/01/24 09:29:24;;;;;;;;;;;;;;;;;;5026607;28;20386;-83
2021/01/24 09:31:50;;;;;;;;;;;;;;;;;;5026631;28;20426;-84
2021/01/24 09:34:17;;;;;;;;;;;;;;;;;;5025920;28;20402;-83
2021/01/24 09:39:24;;;;;;;;;;;;;;;;;;5024739;28;20417;-84
2021/01/24 09:41:50;;;;;;;;;;;;;;;;;;5033899;28;20434;-84
2021/01/24 09:44:17;;;;;;;;;;;;;;;;;;5024070;28;20386;-84
2021/01/24 09:46:43;;;;;;;;;;;;;;;;;;5024197;28;20379;-84
2021/01/24 09:49:09;;;;;;;;;;;;;;;;;;5034858;28;20398;-84
2021/01/24 09:51:36;;;;;;;;;;;;;;;;;;5040730;28;20415;-84
2021/01/24 09:54:02;;;;;;;;;;;;;;;;;;5027815;28;20391;-84
2021/01/24 09:56:28;;;;;;;;;;;;;;;;;;5030610;28;20383;-84
2021/01/24 09:58:55;;;;;;;;;;;;;;;;;;5021949;28;20410;-88
2021/01/24 10:01:21;;;;;;;;;;;;;;;;;;5020400;28;20496;-86
2021/01/24 10:03:48;;;;;;;;;;;;;;;;;;5021062;28;20389;-86
2021/01/24 10:06:14;;;;;;;;;;;;;;;;;;5021192;28;20453;-86
2021/01/24 10:14:10;;;;;;;;;;;;;;;;;;5027733;28;20355;-86
2021/01/24 10:16:37;;;;;;;;;;;;;;;;;;5027809;28;20402;-86
2021/01/24 10:19:03;;;;;;;;;;;;;;;;;;5020143;28;20410;-86
2021/01/24 10:21:29;;;;;;;;;;;;;;;;;;5019242;28;20413;-86
2021/01/24 10:23:56;;;;;;;;;;;;;;;;;;5020831;28;20394;-86
2021/01/24 10:26:24;;;;;;;;;;;;;;;;;;5028276;28;20417;-85
2021/01/24 10:28:51;;;;;;;;;;;;;;;;;;5021170;28;20540;-86
2021/01/24 10:31:17;;;;;;;;;;;;;;;;;;5031320;28;20411;-86
2021/01/24 10:33:45;;;;;;;;;;;;;;;;;;5018612;28;21114;-85
2021/01/24 10:38:55;;;;;;;;;;;;;;;;;;5022513;28;20408;-85
2021/01/24 10:41:22;;;;;;;;;;;;;;;;;;5020449;28;20737;-84
2021/01/24 10:43:48;;;;;;;;;;;;;;;;;;5031850;28;20134;-85
2021/01/24 10:46:15;;;;;;;;;;;;;;;;;;5026031;28;19922;-85
2021/01/24 10:48:42;;;;;;;;;;;;;;;;;;5032760;28;19947;-84
2021/01/24 10:51:09;;;;;;;;;;;;;;;;;;5034526;28;19960;-86
2021/01/24 10:53:35;;;;;;;;;;;;;;;;;;5024393;28;19925;-86
2021/01/24 10:56:02;;;;;;;;;;;;;;;;;;5027197;28;19921;-85
2021/01/24 10:58:28;;;;;;;;;;;;;;;;;;5018199;28;19948;-85
2021/01/24 11:00:55;;;;;;;;;;;;;;;;;;5043396;28;19928;-87
2021/01/24 11:03:21;;;;;;;;;;;;;;;;;;5029062;28;19921;-86
2021/01/24 11:05:48;;;;;;;;;;;;;;;;;;5025377;28;20020;-87
2021/01/24 11:08:14;;;;;;;;;;;;;;;;;;5049548;28;20421;-86
2021/01/24 11:10:40;;;;;;;;;;;;;;;;;;5044745;28;20301;-85
2021/01/24 11:13:07;;;;;;;;;;;;;;;;;;5040460;28;20288;-86
2021/01/24 11:15:33;;;;;;;;;;;;;;;;;;5042122;28;20275;-86
2021/01/24 11:18:00;;;;;;;;;;;;;;;;;;5040870;28;20167;-85
2021/01/24 11:20:26;;;;;;;;;;;;;;;;;;5033044;28;19929;-87
2021/01/24 11:22:52;;;;;;;;;;;;;;;;;;5022154;28;19921;-86
2021/01/24 11:25:19;;;;;;;;;;;;;;;;;;5033737;28;19928;-87
2021/01/24 11:27:45;;;;;;;;;;;;;;;;;;5021023;28;19922;-87
2021/01/24 11:30:12;;;;;;;;;;;;;;;;;;5019262;28;20324;-85
2021/01/24 11:32:40;;;;;;;;;;;;;;;;;;5021819;28;20370;-87
2021/01/24 11:35:06;;;;;;;;;;;;;;;;;;5027410;28;19921;-86
2021/01/24 11:37:32;;;;;;;;;;;;;;;;;;5023322;28;19921;-85
2021/01/24 11:39:59;;;;;;;;;;;;;;;;;;5025218;28;19925;-86
2021/01/24 11:42:25;;;;;;;;;;;;;;;;;;5029337;28;19933;-87
2021/01/24 11:44:52;;;;;;;;;;;;;;;;;;5039757;28;19921;-87
2021/01/24 11:47:18;;;;;;;;;;;;;;;;;;5051791;28;19925;-86
2021/01/24 11:49:45;;;;;;;;;;;;;;;;;;5035224;28;20294;-86
2021/01/24 11:52:11;;;;;;;;;;;;;;;;;;5032182;28;19921;-84
2021/01/24 11:54:37;;;;;;;;;;;;;;;;;;5024315;28;19929;-87
2021/01/24 11:57:04;;;;;;;;;;;;;;;;;;5021109;28;19929;-83
2021/01/24 11:59:30;;;;;;;;;;;;;;;;;;5023070;28;19925;-86
2021/01/24 12:01:57;;;;;;;;;;;;;;;;;;5025756;28;19928;-86
2021/01/24 12:04:23;;;;;;;;;;;;;;;;;;5024390;28;21483;-85
2021/01/24 12:06:49;;;;;;;;;;;;;;;;;;5030666;28;19928;-85
2021/01/24 12:09:16;;;;;;;;;;;;;;;;;;5042804;28;19928;-85
2021/01/24 12:11:42;;;;;;;;;;;;;;;;;;5026621;28;19928;-85
2021/01/24 12:14:09;;;;;;;;;;;;;;;;;;5022738;28;19925;-88
2021/01/24 12:16:35;;;;;;;;;;;;;;;;;;5022442;28;20274;-85
2021/01/24 12:19:02;;;;;;;;;;;;;;;;;;5024531;28;19922;-85
2021/01/24 12:21:28;;;;;;;;;;;;;;;;;;5042033;28;19921;-85
2021/01/24 12:23:55;;;;;;;;;;;;;;;;;;5028738;28;19944;-83
2021/01/24 12:26:22;;;;;;;;;;;;;;;;;;5030409;28;19925;-85
2021/01/24 12:28:51;;;;;;;;;;;;;;;;;;5025432;28;19928;-84
2021/01/24 12:31:21;;;;;;;;;;;;;;;;;;5023253;28;20366;-85
2021/01/24 12:33:47;;;;;;;;;;;;;;;;;;5028437;28;19920;-85
2021/01/24 12:36:14;;;;;;;;;;;;;;;;;;5021571;28;19928;-85
2021/01/24 12:38:43;;;;;;;;;;;;;;;;;;5020315;28;19921;-87
2021/01/24 12:41:09;;;;;;;;;;;;;;;;;;5027893;28;19929;-85
2021/01/24 12:43:35;;;;;;;;;;;;;;;;;;5029865;28;19928;-86
2021/01/24 12:46:02;;;;;;;;;;;;;;;;;;5029344;28;19921;-87
2021/01/24 12:48:28;;;;;;;;;;;;;;;;;;5021100;28;19925;-87
2021/01/24 12:50:55;;;;;;;;;;;;;;;;;;5019738;28;19921;-87
2021/01/24 12:53:21;;;;;;;;;;;;;;;;;;5024354;28;20309;-86
2021/01/24 12:55:48;;;;;;;;;;;;;;;;;;5026491;28;20414;-87
2021/01/24 12:58:14;;;;;;;;;;;;;;;;;;5049980;28;20395;-84
2021/01/24 13:00:40;;;;;;;;;;;;;;;;;;5029789;28;20387;-86
2021/01/24 13:03:07;;;;;;;;;;;;;;;;;;5021767;28;20460;-87
2021/01/24 13:05:33;;;;;;;;;;;;;;;;;;5031060;28;20391;-87
2021/01/24 13:08:04;;;;;;;;;;;;;;;;;;5027527;28;20410;-86
2021/01/24 13:10:30;;;;;;;;;;;;;;;;;;5025888;28;20386;-87
2021/01/24 13:12:56;;;;;;;;;;;;;;;;;;5020527;28;20413;-86
2021/01/24 13:15:23;;;;;;;;;;;;;;;;;;5024333;28;20398;-87
2021/01/24 13:17:49;;;;;;;;;;;;;;;;;;5024645;28;20473;-87
2021/01/24 13:20:16;;;;;;;;;;;;;;;;;;5020880;28;20394;-87
2021/01/24 13:22:42;;;;;;;;;;;;;;;;;;5020467;28;20433;-86
2021/01/24 13:25:08;;;;;;;;;;;;;;;;;;5022377;28;20394;-85
2021/01/24 13:27:35;;;;;;;;;;;;;;;;;;5022819;28;20413;-85
2021/01/24 13:30:01;;;;;;;;;;;;;;;;;;5021559;28;20503;-84
2021/01/24 13:32:28;;;;;;;;;;;;;;;;;;5028570;28;20425;-87
2021/01/24 13:34:54;;;;;;;;;;;;;;;;;;5010301;28;20390;-87
2021/01/24 13:37:20;;;;;;;;;;;;;;;;;;5019187;28;20390;-86
2021/01/24 13:39:47;;;;;;;;;;;;;;;;;;5019006;28;20397;-87
2021/01/24 13:42:13;;;;;;;;;;;;;;;;;;5018459;28;20480;-86
2021/01/24 13:44:42;;;;;;;;;;;;;;;;;;5019679;28;20394;-88
2021/01/24 13:47:08;;;;;;;;;;;;;;;;;;5020322;28;20379;-88
2021/01/24 13:49:34;;;;;;;;;;;;;;;;;;5020018;28;20409;-87
2021/01/24 13:52:01;;;;;;;;;;;;;;;;;;5024623;28;20822;-88
2021/01/24 13:54:27;;;;;;;;;;;;;;;;;;5041493;28;20423;-87
2021/01/24 13:57:06;;;;;;;;;;;;;;;;;;5024272;28;20368;-87
2021/01/24 13:59:33;;;;;;;;;;;;;;;;;;5021931;28;21165;-86
2021/01/24 14:02:00;;;;;;;;;;;;;;;;;;5020038;28;20815;-86
2021/01/24 14:04:27;;;;;;;;;;;;;;;;;;5022987;28;25079;-85
2021/01/24 14:06:53;;;;;;;;;;;;;;;;;;5022443;28;19925;-86
2021/01/24 14:09:21;;;;;;;;;;;;;;;;;;5021541;28;19932;-86
2021/01/24 14:11:47;;;;;;;;;;;;;;;;;;5022197;28;19925;-88
2021/01/24 14:14:14;;;;;;;;;;;;;;;;;;5021225;28;19991;-87
2021/01/24 14:16:41;;;;;;;;;;;;;;;;;;5019679;28;19940;-86
2021/01/24 14:19:07;;;;;;;;;;;;;;;;;;5020956;28;19929;-86
2021/01/24 14:24:20;;;;;;;;;;;;;;;;;;4990608;28;20418;-87
2021/01/24 14:26:47;;;;;;;;;;;;;;;;;;4980751;28;19926;-88
2021/01/24 14:29:13;;;;;;;;;;;;;;;;;;4980452;28;19926;-87
2021/01/24 14:31:45;;;;;;;;;;;;;;;;;;4979122;28;19937;-87
2021/01/24 14:34:11;;;;;;;;;;;;;;;;;;4980802;28;19927;-88
2021/01/24 14:36:38;;;;;;;;;;;;;;;;;;4978763;28;19953;-88
2021/01/24 14:39:04;;;;;;;;;;;;;;;;;;4979530;28;19981;-88
2021/01/24 14:41:31;;;;;;;;;;;;;;;;;;4981159;28;19926;-87
2021/01/24 14:43:57;;;;;;;;;;;;;;;;;;4983324;28;19930;-87
2021/01/24 14:46:27;;;;;;;;;;;;;;;;;;4983088;28;19926;-88
2021/01/24 14:48:53;;;;;;;;;;;;;;;;;;4975440;28;19933;-87
2021/01/24 14:51:21;;;;;;;;;;;;;;;;;;4980649;28;20595;-87
2021/01/24 14:53:48;;;;;;;;;;;;;;;;;;4980445;28;19930;-87
2021/01/24 14:56:14;;;;;;;;;;;;;;;;;;4982696;28;19926;-87
2021/01/24 14:58:40;;;;;;;;;;;;;;;;;;4983176;28;19930;-88
2021/01/24 15:01:07;;;;;;;;;;;;;;;;;;4998111;28;19933;-87
2021/01/24 15:03:33;;;;;;;;;;;;;;;;;;5023462;28;20313;-88
2021/01/24 15:06:00;;;;;;;;;;;;;;;;;;5022366;28;19926;-86
2021/01/24 15:08:26;;;;;;;;;;;;;;;;;;5023058;28;19926;-88
2021/01/24 15:10:53;;;;;;;;;;;;;;;;;;5022180;28;19949;-88
2021/01/24 15:13:19;;;;;;;;;;;;;;;;;;5021866;28;20371;-89
2021/01/24 15:15:45;;;;;;;;;;;;;;;;;;5021417;28;19925;-88
2021/01/24 15:18:12;;;;;;;;;;;;;;;;;;5021329;28;20244;-88
2021/01/24 15:20:38;;;;;;;;;;;;;;;;;;5022306;28;20413;-87
2021/01/24 15:23:05;;;;;;;;;;;;;;;;;;5022186;28;20307;-88
2021/01/24 15:25:31;;;;;;;;;;;;;;;;;;5023038;28;20336;-84
2021/01/24 15:27:58;;;;;;;;;;;;;;;;;;5029024;28;19953;-87
2021/01/24 15:30:24;;;;;;;;;;;;;;;;;;5026113;28;19921;-88
2021/01/24 15:32:51;;;;;;;;;;;;;;;;;;5028313;28;19921;-87
2021/01/24 15:35:17;;;;;;;;;;;;;;;;;;5027525;28;20348;-90
2021/01/24 15:37:44;;;;;;;;;;;;;;;;;;5028062;28;19945;-86
2021/01/24 15:40:11;;;;;;;;;;;;;;;;;;5025883;28;19928;-86
2021/01/24 15:42:37;;;;;;;;;;;;;;;;;;5024711;28;19979;-87
2021/01/24 15:45:03;;;;;;;;;;;;;;;;;;5044858;28;19928;-86
2021/01/24 15:47:30;;;;;;;;;;;;;;;;;;5045614;28;19921;-85
2021/01/24 15:49:56;;;;;;;;;;;;;;;;;;5026433;28;19921;-87
2021/01/24 15:52:23;;;;;;;;;;;;;;;;;;5028834;28;19925;-86
2021/01/24 15:54:49;;;;;;;;;;;;;;;;;;5033139;28;19921;-86
2021/01/24 15:57:15;;;;;;;;;;;;;;;;;;5032702;28;19943;-85
2021/01/24 15:59:43;;;;;;;;;;;;;;;;;;5040042;28;21198;-87
2021/01/24 16:02:10;;;;;;;;;;;;;;;;;;5044465;28;19917;-86
2021/01/24 16:04:39;;;;;;;;;;;;;;;;;;5036565;28;19932;-88
2021/01/24 16:09:49;;;;;;;;;;;;;;;;;;5041803;28;19924;-87
2021/01/24 16:12:16;;;;;;;;;;;;;;;;;;5032235;28;19932;-88
2021/01/24 16:14:42;;;;;;;;;;;;;;;;;;5044768;28;19947;-87
2021/01/24 16:17:09;;;;;;;;;;;;;;;;;;5038542;28;19926;-87
2021/01/24 16:19:35;;;;;;;;;;;;;;;;;;5025905;28;19926;-88
2021/01/24 16:22:02;;;;;;;;;;;;;;;;;;5024711;28;19925;-87
2021/01/24 16:24:28;;;;;;;;;;;;;;;;;;5021975;28;20028;-88
2021/01/24 16:26:55;;;;;;;;;;;;;;;;;;5035885;28;19929;-86
2021/01/24 16:29:21;;;;;;;;;;;;;;;;;;5053612;28;19928;-86
2021/01/24 16:31:48;;;;;;;;;;;;;;;;;;5031464;28;19925;-86
2021/01/24 16:34:14;;;;;;;;;;;;;;;;;;5024871;28;19925;-86
2021/01/24 16:36:40;;;;;;;;;;;;;;;;;;5027373;28;19926;-85
2021/01/24 16:39:07;;;;;;;;;;;;;;;;;;5043573;28;19929;-86
2021/01/24 16:41:33;;;;;;;;;;;;;;;;;;5026482;28;20016;-86
2021/01/24 16:44:00;;;;;;;;;;;;;;;;;;5023949;28;19925;-87
2021/01/24 16:46:26;;;;;;;;;;;;;;;;;;5022834;28;19925;-87
2021/01/24 16:48:52;;;;;;;;;;;;;;;;;;5022371;28;19925;-87
2021/01/24 16:51:19;;;;;;;;;;;;;;;;;;5021827;28;19933;-88
2021/01/24 16:53:45;;;;;;;;;;;;;;;;;;5036518;28;19940;-86
2021/01/24 16:56:12;;;;;;;;;;;;;;;;;;5030137;28;20000;-88